createdAt,value
2019-01-22T00:01:46.443Z,9.70
2019-01-22T00:04:16.455Z,9.40
2019-01-22T00:06:46.336Z,9.47
2019-01-22T00:09:16.479Z,10.23
2019-01-22T00:11:46.496Z,10.70
2019-01-22T00:14:16.996Z,10.40
2019-01-22T00:16:47.104Z,10.07
2019-01-22T00:19:17.145Z,9.40
2019-01-22T00:21:47.127Z,9.53
2019-01-22T00:24:17.433Z,9.87
2019-01-22T00:26:48.526Z,9.27
2019-01-22T00:29:18.871Z,10.00
2019-01-22T00:31:48.701Z,9.17
2019-01-22T00:34:18.756Z,9.23
2019-01-22T00:36:48.973Z,9.37
2019-01-22T00:39:19.669Z,8.73
2019-01-22T00:41:49.677Z,9.00
2019-01-22T00:44:19.829Z,9.60
2019-01-22T00:46:49.901Z,10.20
2019-01-22T00:49:20.206Z,9.90
2019-01-22T00:51:50.568Z,8.67
2019-01-22T00:54:20.725Z,8.70
2019-01-22T00:56:51.039Z,9.47
2019-01-22T00:59:21.331Z,9.30
2019-01-22T01:01:51.644Z,9.13
2019-01-22T01:04:21.847Z,8.53
2019-01-22T01:06:52.054Z,8.83
2019-01-22T01:09:22.265Z,8.63
2019-01-22T01:11:52.379Z,8.60
2019-01-22T01:14:22.389Z,8.40
2019-01-22T01:16:52.496Z,8.23
2019-01-22T01:19:22.507Z,9.07
2019-01-22T01:21:52.723Z,8.03
2019-01-22T01:24:22.636Z,7.97
2019-01-22T01:26:52.543Z,8.23
2019-01-22T01:29:22.558Z,8.73
2019-01-22T01:31:52.668Z,9.17
2019-01-22T01:34:22.678Z,8.77
2019-01-22T01:36:52.689Z,8.40
2019-01-22T01:39:22.701Z,9.03
2019-01-22T01:41:53.006Z,8.37
2019-01-22T01:44:22.920Z,8.30
2019-01-22T01:46:52.834Z,8.47
2019-01-22T01:49:22.753Z,8.17
2019-01-22T01:51:52.762Z,8.20
2019-01-22T01:54:22.823Z,8.47
2019-01-22T01:56:53.179Z,8.67
2019-01-22T01:59:23.095Z,8.67
2019-01-22T02:01:53.002Z,8.00
2019-01-22T02:04:22.920Z,8.87
2019-01-22T02:06:53.028Z,9.10
2019-01-22T02:09:23.435Z,8.20
2019-01-22T02:11:53.350Z,8.20
2019-01-22T02:14:25.522Z,8.20
2019-01-22T02:17:11.556Z,7.93
2019-01-22T02:19:49.038Z,7.90
2019-01-22T02:22:46.871Z,8.27
2019-01-22T02:25:30.441Z,8.13
2019-01-22T02:28:22.633Z,8.30
2019-01-22T02:31:11.988Z,8.03
2019-01-22T02:34:04.281Z,7.67
2019-01-22T02:36:47.769Z,8.03
2019-01-22T02:39:25.270Z,7.67
2019-01-22T02:41:59.592Z,7.73
2019-01-22T02:45:12.261Z,7.70
2019-01-22T02:47:52.101Z,7.70
2019-01-22T02:50:53.866Z,8.20
2019-01-22T02:53:38.670Z,7.90
2019-01-22T02:56:30.562Z,8.07
2019-01-22T02:59:45.197Z,7.93
2019-01-22T03:02:25.436Z,8.00
2019-01-22T03:05:14.316Z,8.27
2019-01-22T03:08:19.031Z,8.60
2019-01-22T03:11:16.304Z,8.03
2019-01-22T03:14:14.799Z,7.50
2019-01-22T03:17:27.470Z,8.13
2019-01-22T03:20:16.315Z,7.70
2019-01-22T03:22:56.110Z,8.50
2019-01-22T03:25:51.569Z,8.03
2019-01-22T03:28:34.457Z,7.87
2019-01-22T03:31:30.073Z,7.77
2019-01-22T03:34:23.837Z,8.80
2019-01-22T03:37:04.195Z,8.60
2019-01-22T03:39:44.324Z,8.57
2019-01-22T03:42:39.880Z,8.77
2019-01-22T03:45:17.261Z,7.90
2019-01-22T03:48:09.983Z,8.13
2019-01-22T03:51:02.209Z,7.67
2019-01-22T03:53:53.721Z,8.57
2019-01-22T03:56:38.998Z,9.13
2019-01-22T03:59:09.106Z,9.07
2019-01-22T04:01:39.118Z,8.93
2019-01-22T04:04:09.033Z,9.07
2019-01-22T04:06:39.174Z,8.97
2019-01-22T04:09:16.628Z,8.23
2019-01-22T04:11:47.051Z,8.23
2019-01-22T04:14:17.437Z,8.30
2019-01-22T04:16:47.647Z,8.07
2019-01-22T04:19:17.754Z,8.03
2019-01-22T04:21:47.868Z,8.17
2019-01-22T04:24:24.878Z,8.57
2019-01-22T04:27:08.039Z,8.70
2019-01-22T04:29:54.374Z,8.47
2019-01-22T04:32:29.006Z,10.63
2019-01-22T04:35:39.717Z,10.07
2019-01-22T04:38:38.222Z,9.43
2019-01-22T04:41:24.465Z,8.07
2019-01-22T04:44:10.754Z,8.13
2019-01-22T04:46:47.792Z,8.00
2019-01-22T04:49:37.166Z,8.30
2019-01-22T04:52:20.153Z,8.10
2019-01-22T04:55:09.631Z,8.20
2019-01-22T04:57:49.660Z,7.07
2019-01-22T05:00:43.685Z,7.67
2019-01-22T05:03:24.000Z,6.87
2019-01-22T05:06:16.620Z,6.53
2019-01-22T05:08:59.811Z,7.20
2019-01-22T05:12:09.045Z,6.57
2019-01-22T05:14:52.127Z,7.77
2019-01-22T05:17:38.160Z,7.27
2019-01-22T05:20:23.707Z,7.60
2019-01-22T05:23:16.131Z,7.13
2019-01-22T05:26:08.756Z,7.80
2019-01-22T05:28:43.094Z,7.70
2019-01-22T05:31:26.375Z,8.43
2019-01-22T05:34:27.946Z,7.87
2019-01-22T05:37:21.843Z,7.70
2019-01-22T05:40:18.598Z,7.87
2019-01-22T05:42:58.664Z,9.30
2019-01-22T05:45:41.092Z,10.03
2019-01-22T05:48:30.603Z,9.70
2019-01-22T05:51:28.302Z,9.17
2019-01-22T05:54:26.580Z,9.20
2019-01-22T05:57:00.774Z,9.13
2019-01-22T05:59:44.381Z,9.33
2019-01-22T06:02:17.240Z,9.63
2019-01-22T06:05:06.421Z,9.70
2019-01-22T06:08:04.873Z,9.20
2019-01-22T06:11:06.214Z,8.93
2019-01-22T06:13:58.643Z,8.63
2019-01-22T06:16:55.400Z,8.40
2019-01-22T06:19:56.645Z,7.90
2019-01-22T06:22:54.713Z,7.80
2019-01-22T06:25:34.505Z,7.57
2019-01-22T06:28:14.526Z,7.07
2019-01-22T06:31:10.085Z,7.27
2019-01-22T06:33:49.987Z,7.30
2019-01-22T06:36:26.786Z,7.80
2019-01-22T06:39:10.078Z,7.17
2019-01-22T06:42:17.921Z,7.80
2019-01-22T06:45:17.840Z,8.27
2019-01-22T06:48:07.804Z,12.67
2019-01-22T06:51:01.885Z,20.23
2019-01-22T06:53:36.268Z,21.77
2019-01-22T06:56:31.720Z,13.07
2019-01-22T06:59:21.769Z,15.30
2019-01-22T07:02:08.095Z,16.20
2019-01-22T07:05:11.726Z,15.07
2019-01-22T07:08:01.059Z,23.00
2019-01-22T07:10:49.709Z,30.33
2019-01-22T07:13:41.923Z,30.30
2019-01-22T07:16:27.966Z,29.37
2019-01-22T07:19:26.278Z,23.53
2019-01-22T07:22:15.360Z,15.97
2019-01-22T07:25:10.660Z,14.50
2019-01-22T07:28:04.536Z,14.53
2019-01-22T07:31:12.002Z,16.30
2019-01-22T07:34:10.199Z,18.00
2019-01-22T07:37:07.079Z,18.13
2019-01-22T07:39:41.652Z,16.53
2019-01-22T07:42:21.843Z,16.43
2019-01-22T07:45:12.501Z,15.07
2019-01-22T07:47:46.849Z,14.37
2019-01-22T07:50:45.231Z,14.30
2019-01-22T07:53:31.399Z,12.87
2019-01-22T07:56:31.097Z,13.40
2019-01-22T07:59:32.760Z,13.03
2019-01-22T08:02:24.783Z,11.90
2019-01-22T08:05:25.091Z,10.30
2019-01-22T08:08:21.692Z,11.30
2019-01-22T08:11:30.250Z,10.90
2019-01-22T08:14:20.737Z,11.07
2019-01-22T08:17:18.963Z,11.53
2019-01-22T08:20:17.485Z,10.50
2019-01-22T08:23:06.997Z,11.63
2019-01-22T08:26:17.770Z,11.37
2019-01-22T08:29:03.926Z,12.30
2019-01-22T08:32:13.040Z,11.73
2019-01-22T08:35:16.187Z,11.87
2019-01-22T08:38:14.697Z,11.83
2019-01-22T08:41:03.978Z,12.00
2019-01-22T08:44:00.937Z,12.17
2019-01-22T08:46:50.305Z,11.07
2019-01-22T08:49:44.006Z,12.40
2019-01-22T08:52:30.231Z,12.10
2019-01-22T08:55:25.615Z,10.67
2019-01-22T08:58:11.942Z,11.57
2019-01-22T09:00:55.228Z,11.10
2019-01-22T09:03:32.514Z,10.47
2019-01-22T09:06:30.619Z,9.67
2019-01-22T09:09:25.815Z,10.27
2019-01-22T09:12:11.851Z,10.30
2019-01-22T09:14:58.380Z,9.90
2019-01-22T09:18:04.217Z,10.17
2019-01-22T09:21:02.396Z,8.63
2019-01-22T09:23:48.926Z,8.90
2019-01-22T09:26:29.256Z,8.77
2019-01-22T09:29:12.456Z,8.23
2019-01-22T09:32:16.762Z,8.60
2019-01-22T09:35:27.299Z,8.80
2019-01-22T09:37:58.583Z,9.10
2019-01-22T09:40:28.406Z,9.50
2019-01-22T09:42:59.326Z,9.60
2019-01-22T09:45:29.487Z,10.07
2019-01-22T09:47:59.507Z,9.50
2019-01-22T09:50:29.422Z,9.10
2019-01-22T09:52:59.362Z,9.10
2019-01-22T09:55:30.497Z,9.30
2019-01-22T09:58:00.629Z,8.70
2019-01-22T10:00:31.133Z,8.80
2019-01-22T10:03:00.925Z,8.80
2019-01-22T10:05:30.856Z,7.60
2019-01-22T10:08:00.867Z,7.90
2019-01-22T10:10:31.274Z,8.67
2019-01-22T10:13:01.384Z,9.00
2019-01-22T10:15:31.493Z,8.80
2019-01-22T10:18:01.409Z,8.40
2019-01-22T10:20:31.523Z,9.33
2019-01-22T10:23:01.429Z,9.70
2019-01-22T10:25:31.348Z,9.20
2019-01-22T10:28:01.256Z,8.97
2019-01-22T10:30:31.366Z,9.97
2019-01-22T10:33:01.282Z,9.43
2019-01-22T10:35:31.195Z,8.47
2019-01-22T10:38:01.502Z,9.37
2019-01-22T10:40:31.415Z,9.70
2019-01-22T10:43:01.425Z,9.20
2019-01-22T10:45:31.643Z,9.00
2019-01-22T10:48:01.747Z,8.70
2019-01-22T10:50:35.770Z,9.67
2019-01-22T10:53:04.520Z,9.80
2019-01-22T10:55:36.291Z,9.10
2019-01-22T10:58:08.796Z,7.80
2019-01-22T11:00:39.961Z,8.27
2019-01-22T11:03:09.886Z,9.27
2019-01-22T11:05:40.866Z,9.97
2019-01-22T11:08:11.180Z,8.70
2019-01-22T11:10:41.286Z,8.07
2019-01-22T11:13:11.617Z,8.50
2019-01-22T11:15:41.805Z,8.03
2019-01-22T11:18:11.717Z,10.30
2019-01-22T11:20:41.731Z,9.40
2019-01-22T11:23:11.932Z,9.07
2019-01-22T11:25:43.805Z,9.13
2019-01-22T11:28:13.949Z,9.37
2019-01-22T11:30:44.043Z,10.60
2019-01-22T11:33:13.970Z,10.50
2019-01-22T11:35:44.454Z,10.33
2019-01-22T11:38:14.301Z,8.97
2019-01-22T11:40:45.656Z,8.90
2019-01-22T11:43:15.572Z,8.77
2019-01-22T11:45:45.377Z,7.50
2019-01-22T11:48:15.302Z,9.40
2019-01-22T11:50:45.690Z,9.57
2019-01-22T11:53:16.603Z,9.67
2019-01-22T11:55:50.537Z,8.87
2019-01-22T11:58:18.489Z,9.20
2019-01-22T12:00:50.284Z,9.10
2019-01-22T12:03:20.191Z,9.47
2019-01-22T12:05:53.286Z,9.40
2019-01-22T12:08:21.984Z,8.70
2019-01-22T12:10:51.900Z,13.13
2019-01-22T12:13:21.804Z,8.90
2019-01-22T12:15:51.593Z,8.60
2019-01-22T12:18:21.533Z,9.53
2019-01-22T12:20:51.330Z,10.33
2019-01-22T12:23:21.363Z,10.10
2019-01-22T12:25:57.064Z,9.57
2019-01-22T12:28:23.549Z,9.87
2019-01-22T12:30:53.655Z,9.63
2019-01-22T12:33:23.570Z,8.63
2019-01-22T12:35:53.482Z,9.17
2019-01-22T12:38:23.495Z,9.27
2019-01-22T12:40:53.411Z,8.73
2019-01-22T12:43:23.326Z,9.83
2019-01-22T12:45:53.241Z,8.97
2019-01-22T12:48:23.154Z,8.57
2019-01-22T12:50:53.072Z,9.07
2019-01-22T12:53:22.867Z,9.20
2019-01-22T12:55:52.832Z,10.90
2019-01-22T12:58:22.703Z,10.63
2019-01-22T13:00:52.586Z,11.67
2019-01-22T13:03:22.486Z,9.70
2019-01-22T13:05:55.446Z,10.50
2019-01-22T13:08:25.244Z,8.90
2019-01-22T13:10:55.033Z,9.20
2019-01-22T13:13:24.823Z,8.30
2019-01-22T13:15:54.875Z,8.97
2019-01-22T13:18:24.661Z,9.43
2019-01-22T13:20:54.681Z,8.93
2019-01-22T13:23:24.434Z,27.03
2019-01-22T13:25:54.230Z,11.73
2019-01-22T13:28:24.147Z,9.53
2019-01-22T13:30:54.175Z,12.80
2019-01-22T13:33:24.046Z,10.03
2019-01-22T13:35:53.842Z,11.20
2019-01-22T13:38:23.777Z,8.00
2019-01-22T13:40:53.699Z,7.07
2019-01-22T13:43:23.604Z,9.47
2019-01-22T13:45:54.108Z,9.87
2019-01-22T13:48:24.119Z,6.93
2019-01-22T13:50:54.230Z,8.43
2019-01-22T13:53:24.640Z,12.73
2019-01-22T13:55:54.420Z,9.70
2019-01-22T13:58:24.221Z,6.00
2019-01-22T14:00:54.160Z,5.30
2019-01-22T14:03:23.962Z,4.50
2019-01-22T14:05:56.671Z,4.60
2019-01-22T14:08:25.261Z,3.10
2019-01-22T14:10:55.213Z,3.37
2019-01-22T14:13:25.000Z,2.60
2019-01-22T14:15:54.793Z,2.73
2019-01-22T14:18:24.582Z,2.67
2019-01-22T14:20:54.368Z,2.33
2019-01-22T14:23:24.160Z,2.30
2019-01-22T14:25:54.016Z,2.20
2019-01-22T14:28:23.818Z,2.83
2019-01-22T14:30:53.631Z,2.50
2019-01-22T14:33:23.416Z,3.07
2019-01-22T14:35:53.310Z,2.83
2019-01-22T14:38:23.234Z,2.90
2019-01-22T14:40:53.480Z,2.93
2019-01-22T14:43:23.267Z,3.10
2019-01-22T14:45:53.076Z,2.97
2019-01-22T14:48:23.225Z,3.53
2019-01-22T14:50:53.427Z,4.50
2019-01-22T14:53:23.696Z,4.60
2019-01-22T14:55:53.653Z,4.40
2019-01-22T14:58:23.758Z,5.30
2019-01-22T15:00:54.068Z,5.40
2019-01-22T15:03:24.078Z,5.20
2019-01-22T15:05:54.087Z,6.50
2019-01-22T15:08:24.104Z,6.83
2019-01-22T15:10:54.400Z,7.10
2019-01-22T15:13:24.912Z,6.90
2019-01-22T15:15:54.825Z,6.23
2019-01-22T15:18:24.737Z,6.40
2019-01-22T15:20:55.113Z,7.17
2019-01-22T15:23:25.283Z,6.57
2019-01-22T15:25:55.464Z,5.00
2019-01-22T15:28:29.556Z,5.00
2019-01-22T15:31:00.457Z,3.50
2019-01-22T15:33:35.305Z,2.80
2019-01-22T15:36:07.036Z,2.70
2019-01-22T15:38:39.400Z,2.80
2019-01-22T15:41:10.696Z,2.70
2019-01-22T15:43:43.094Z,2.20
2019-01-22T15:46:17.316Z,2.70
2019-01-22T15:48:49.644Z,2.87
2019-01-22T15:51:21.799Z,2.87
2019-01-22T15:53:53.102Z,4.27
2019-01-22T15:56:25.286Z,3.93
2019-01-22T15:58:55.200Z,4.17
2019-01-22T16:01:25.410Z,3.30
2019-01-22T16:03:55.322Z,3.90
2019-01-22T16:06:25.234Z,4.47
2019-01-22T16:08:55.157Z,4.00
2019-01-22T16:11:26.804Z,3.83
2019-01-22T16:13:56.848Z,4.43
2019-01-22T16:16:26.870Z,4.40
2019-01-22T16:18:57.164Z,4.70
2019-01-22T16:21:27.278Z,5.13
2019-01-22T16:23:57.076Z,5.50
2019-01-22T16:26:27.107Z,5.07
2019-01-22T16:28:57.126Z,6.87
2019-01-22T16:31:27.026Z,6.23
2019-01-22T16:33:57.037Z,6.97
2019-01-22T16:36:26.951Z,7.63
2019-01-22T16:38:57.062Z,7.73
2019-01-22T16:41:26.975Z,8.83
2019-01-22T16:43:56.887Z,9.63
2019-01-22T16:46:26.806Z,10.40
2019-01-22T16:48:56.915Z,10.93
2019-01-22T16:51:27.161Z,11.03
2019-01-22T16:53:57.133Z,9.30
2019-01-22T16:56:27.045Z,12.17
2019-01-22T16:58:57.195Z,12.20
2019-01-22T17:01:27.195Z,13.40
2019-01-22T17:03:57.475Z,14.90
2019-01-22T17:06:27.483Z,11.23
2019-01-22T17:08:57.593Z,9.67
2019-01-22T17:11:27.412Z,7.93
2019-01-22T17:13:57.519Z,7.23
2019-01-22T17:16:27.665Z,7.80
2019-01-22T17:18:57.744Z,4.77
2019-01-22T17:21:27.850Z,5.10
2019-01-22T17:23:57.762Z,3.90
2019-01-22T17:26:27.678Z,4.30
2019-01-22T17:28:57.786Z,4.10
2019-01-22T17:31:35.567Z,4.10
2019-01-22T17:34:06.067Z,5.77
2019-01-22T17:36:36.080Z,4.10
2019-01-22T17:39:08.976Z,5.10
2019-01-22T17:41:38.961Z,5.73
2019-01-22T17:44:08.869Z,5.80
2019-01-22T17:46:38.783Z,5.60
2019-01-22T17:49:08.792Z,5.47
2019-01-22T17:51:39.294Z,8.10
2019-01-22T17:54:09.210Z,8.50
2019-01-22T17:56:39.150Z,4.67
2019-01-22T17:59:09.232Z,5.93
2019-01-22T18:01:39.145Z,6.27
2019-01-22T18:04:09.067Z,5.60
2019-01-22T18:06:39.281Z,6.73
2019-01-22T18:09:09.800Z,5.30
2019-01-22T18:11:40.373Z,6.33
2019-01-22T18:14:10.288Z,6.20
2019-01-22T18:16:41.182Z,6.00
2019-01-22T18:19:11.185Z,5.97
2019-01-22T18:21:41.309Z,4.97
2019-01-22T18:24:11.511Z,6.33
2019-01-22T18:26:41.835Z,6.27
2019-01-22T18:29:12.423Z,5.63
2019-01-22T18:31:42.333Z,4.80
2019-01-22T18:34:12.343Z,6.27
2019-01-22T18:36:42.328Z,4.70
2019-01-22T18:39:12.472Z,5.20
2019-01-22T18:41:42.382Z,4.63
2019-01-22T18:44:12.391Z,4.90
2019-01-22T18:46:42.753Z,5.20
2019-01-22T18:49:13.108Z,5.13
2019-01-22T18:51:43.325Z,6.58
2019-01-22T18:54:13.127Z,7.13
2019-01-22T18:56:42.968Z,6.17
2019-01-22T18:59:12.965Z,6.47
2019-01-22T19:01:43.119Z,4.93
2019-01-22T19:04:13.252Z,5.50
2019-01-22T19:06:43.495Z,4.27
2019-01-22T19:09:14.112Z,4.83
2019-01-22T19:11:44.097Z,4.60
2019-01-22T19:14:13.936Z,5.47
2019-01-22T19:16:44.017Z,4.83
2019-01-22T19:19:13.983Z,5.47
2019-01-22T19:21:44.020Z,4.47
2019-01-22T19:24:14.175Z,4.00
2019-01-22T19:26:44.093Z,5.07
2019-01-22T19:29:14.371Z,4.23
2019-01-22T19:31:44.490Z,3.77
2019-01-22T19:34:14.301Z,3.43
2019-01-22T19:36:44.210Z,3.13
2019-01-22T19:39:14.319Z,3.03
2019-01-22T19:41:44.351Z,3.10
2019-01-22T19:44:14.350Z,3.30
2019-01-22T19:46:44.257Z,2.90
2019-01-22T19:49:14.661Z,3.10
2019-01-22T19:51:44.688Z,3.23
2019-01-22T19:54:14.686Z,3.13
2019-01-22T19:56:44.600Z,3.10
2019-01-22T19:59:14.646Z,3.07
2019-01-22T20:01:44.916Z,3.50
2019-01-22T20:04:15.535Z,3.17
2019-01-22T20:06:45.432Z,4.00
2019-01-22T20:09:15.962Z,3.90
2019-01-22T20:11:46.665Z,4.50
2019-01-22T20:14:17.925Z,4.00
2019-01-22T20:16:48.071Z,4.27
2019-01-22T20:19:18.916Z,3.70
2019-01-22T20:21:49.892Z,3.70
2019-01-22T20:24:20.564Z,4.00
2019-01-22T20:26:51.333Z,3.30
2019-01-22T20:29:21.638Z,3.60
2019-01-22T20:31:52.076Z,3.63
2019-01-22T20:34:22.403Z,3.43
2019-01-22T20:36:52.658Z,4.20
2019-01-22T20:39:23.257Z,4.43
2019-01-22T20:41:53.837Z,4.00
2019-01-22T20:44:25.496Z,3.53
2019-01-22T20:46:55.754Z,3.30
2019-01-22T20:49:25.878Z,3.90
2019-01-22T20:51:55.788Z,3.37
2019-01-22T20:54:26.172Z,4.40
2019-01-22T20:56:56.282Z,3.37
2019-01-22T20:59:26.460Z,3.03
2019-01-22T21:01:57.012Z,3.27
2019-01-22T21:04:27.008Z,3.87
2019-01-22T21:06:57.124Z,2.90
2019-01-22T21:09:27.031Z,3.87
2019-01-22T21:11:57.351Z,4.10
2019-01-22T21:14:27.448Z,5.70
2019-01-22T21:16:57.329Z,5.70
2019-01-22T21:19:28.059Z,4.60
2019-01-22T21:21:58.010Z,3.00
2019-01-22T21:24:28.751Z,4.37
2019-01-22T21:26:58.676Z,3.47
2019-01-22T21:29:28.700Z,3.20
2019-01-22T21:31:58.920Z,3.17
2019-01-22T21:34:28.828Z,3.43
2019-01-22T21:36:59.420Z,3.67
2019-01-22T21:39:29.653Z,3.60
2019-01-22T21:41:59.548Z,3.60
2019-01-22T21:44:29.452Z,3.47
2019-01-22T21:47:00.324Z,2.90
2019-01-22T21:49:31.254Z,3.77
2019-01-22T21:52:01.159Z,3.43
2019-01-22T21:54:31.778Z,3.50
2019-01-22T21:57:02.126Z,3.77
2019-01-22T21:59:32.307Z,3.50
2019-01-22T22:02:02.396Z,3.80
2019-01-22T22:04:32.595Z,3.60
2019-01-22T22:07:02.509Z,4.20
2019-01-22T22:09:32.815Z,3.00
2019-01-22T22:12:02.853Z,3.33
2019-01-22T22:14:32.938Z,3.03
2019-01-22T22:17:02.817Z,3.13
2019-01-22T22:19:32.963Z,2.97
2019-01-22T22:22:03.022Z,3.43
2019-01-22T22:24:33.084Z,3.33
2019-01-22T22:27:03.000Z,3.37
2019-01-22T22:29:33.107Z,3.50
2019-01-22T22:32:03.415Z,3.40
2019-01-22T22:34:33.328Z,3.60
2019-01-22T22:37:03.911Z,3.37
2019-01-22T22:39:33.944Z,3.00
2019-01-22T22:42:04.245Z,3.10
2019-01-22T22:44:34.158Z,2.80
2019-01-22T22:47:05.272Z,3.03
2019-01-22T22:49:35.263Z,2.73
2019-01-22T22:52:05.399Z,2.67
2019-01-22T22:54:35.289Z,2.47
2019-01-22T22:57:05.200Z,2.33
2019-01-22T22:59:37.032Z,2.33
2019-01-22T23:02:07.193Z,2.00
2019-01-22T23:04:37.498Z,2.20
2019-01-22T23:07:07.949Z,2.20
2019-01-22T23:09:38.231Z,2.37
2019-01-22T23:12:08.641Z,2.30
2019-01-22T23:14:38.634Z,2.40
2019-01-22T23:17:08.736Z,2.60
2019-01-22T23:19:39.279Z,1.93
2019-01-22T23:22:09.056Z,2.20
2019-01-22T23:24:38.968Z,2.43
2019-01-22T23:27:09.179Z,2.43
2019-01-22T23:29:39.384Z,2.20
2019-01-22T23:32:09.175Z,1.80
2019-01-22T23:34:39.408Z,2.17
2019-01-22T23:37:09.321Z,2.13
2019-01-22T23:39:39.430Z,2.30
2019-01-22T23:42:09.442Z,2.03
2019-01-22T23:44:39.456Z,2.00
2019-01-22T23:47:09.367Z,1.83
2019-01-22T23:49:39.382Z,1.63
2019-01-22T23:52:09.177Z,1.70
2019-01-22T23:54:39.122Z,1.50
2019-01-22T23:57:09.515Z,1.70
2019-01-22T23:59:39.623Z,1.50
